createdAt,value
2017-07-15T00:00:18.209Z,13.9
2017-07-15T00:01:18.185Z,13.86
2017-07-15T00:02:17.860Z,13.89
2017-07-15T00:03:18.143Z,13.92
2017-07-15T00:04:17.813Z,13.92
2017-07-15T00:05:18.096Z,13.89
2017-07-15T00:06:18.072Z,13.95
2017-07-15T00:07:18.048Z,13.9
2017-07-15T00:08:18.027Z,13.9
2017-07-15T00:09:17.696Z,13.9
2017-07-15T00:10:17.673Z,13.89
2017-07-15T00:11:17.954Z,13.89
2017-07-15T00:12:17.626Z,13.87
2017-07-15T00:13:17.942Z,13.92
2017-07-15T00:14:17.579Z,14
2017-07-15T00:15:17.859Z,13.99
2017-07-15T00:16:17.836Z,13.93
2017-07-15T00:17:17.813Z,13.89
2017-07-15T00:18:17.789Z,13.9
2017-07-15T00:19:17.768Z,13.9
2017-07-15T00:20:17.742Z,14
2017-07-15T00:21:17.725Z,13.92
2017-07-15T00:22:17.693Z,13.9
2017-07-15T00:23:17.369Z,13.97
2017-07-15T00:24:17.675Z,14.04
2017-07-15T00:25:17.633Z,14
2017-07-15T00:26:17.608Z,13.96
2017-07-15T00:27:17.586Z,13.95
2017-07-15T00:28:17.558Z,13.96
2017-07-15T00:29:17.534Z,13.9
2017-07-15T00:30:17.510Z,13.97
2017-07-15T00:31:17.492Z,13.95
2017-07-15T00:32:17.162Z,13.95
2017-07-15T00:33:17.444Z,13.97
2017-07-15T00:34:17.423Z,14
2017-07-15T00:35:17.394Z,13.97
2017-07-15T00:36:16.763Z,13.97
2017-07-15T00:37:16.739Z,13.96
2017-07-15T00:38:17.019Z,14
2017-07-15T00:39:17.303Z,13.99
2017-07-15T00:40:17.281Z,13.93
2017-07-15T00:41:17.257Z,14.03
2017-07-15T00:42:16.930Z,13.96
2017-07-15T00:43:17.210Z,14.05
2017-07-15T00:44:16.879Z,14.04
2017-07-15T00:45:16.858Z,13.95
2017-07-15T00:46:16.836Z,13.96
2017-07-15T00:47:16.812Z,14.08
2017-07-15T00:48:16.789Z,14.07
2017-07-15T00:49:17.074Z,14.04
2017-07-15T00:50:17.045Z,13.97
2017-07-15T00:51:16.718Z,14.07
2017-07-15T00:52:16.697Z,13.97
2017-07-15T00:53:16.976Z,14.05
2017-07-15T00:54:16.955Z,13.97
2017-07-15T00:55:16.625Z,14.03
2017-07-15T00:56:16.904Z,14.03
2017-07-15T00:57:16.882Z,14
2017-07-15T00:58:16.861Z,13.95
2017-07-15T00:59:16.840Z,13.99
2017-07-15T01:00:16.817Z,14.03
2017-07-15T01:01:16.488Z,14.03
2017-07-15T01:02:16.772Z,14
2017-07-15T01:03:16.439Z,13.99
2017-07-15T01:04:16.417Z,14.08
2017-07-15T01:05:16.394Z,14.04
2017-07-15T01:06:16.370Z,14.04
2017-07-15T01:07:16.699Z,14.04
2017-07-15T01:08:16.326Z,13.99
2017-07-15T01:09:16.612Z,14.04
2017-07-15T01:10:16.553Z,13.96
2017-07-15T01:11:16.559Z,13.96
2017-07-15T01:12:16.238Z,13.93
2017-07-15T01:13:16.510Z,14.04
2017-07-15T01:14:16.185Z,14.04
2017-07-15T01:15:16.162Z,14
2017-07-15T01:16:16.138Z,14.04
2017-07-15T01:17:16.417Z,14.05
2017-07-15T01:18:16.396Z,14.05
2017-07-15T01:19:16.374Z,14.05
2017-07-15T01:20:16.349Z,14.1
2017-07-15T01:21:16.329Z,14.11
2017-07-15T01:22:15.999Z,14.08
2017-07-15T01:23:15.975Z,14.04
2017-07-15T01:24:15.950Z,14.04
2017-07-15T01:25:16.233Z,13.97
2017-07-15T01:26:16.212Z,14.05
2017-07-15T01:27:15.580Z,13.97
2017-07-15T01:28:15.860Z,13.96
2017-07-15T01:29:16.139Z,13.95
2017-07-15T01:30:15.813Z,13.9
2017-07-15T01:31:15.790Z,13.85
2017-07-15T01:32:16.071Z,13.89
2017-07-15T01:33:16.046Z,13.87
2017-07-15T01:34:16.023Z,13.77
2017-07-15T01:35:16.001Z,13.72
2017-07-15T01:36:15.978Z,13.78
2017-07-15T01:37:15.954Z,13.75
2017-07-15T01:38:15.933Z,13.79
2017-07-15T01:39:15.907Z,13.7
2017-07-15T01:40:15.889Z,13.7
2017-07-15T01:41:15.859Z,13.68
2017-07-15T01:42:15.533Z,13.72
2017-07-15T01:43:15.816Z,13.6
2017-07-15T01:44:15.487Z,13.6
2017-07-15T01:45:15.469Z,13.62
2017-07-15T01:46:15.441Z,13.56
2017-07-15T01:47:15.720Z,13.57
2017-07-15T01:48:15.696Z,13.54
2017-07-15T01:49:15.672Z,13.49
2017-07-15T01:50:15.649Z,13.47
2017-07-15T01:51:15.322Z,13.5
2017-07-15T01:52:15.606Z,13.44
2017-07-15T01:53:15.582Z,13.39
2017-07-15T01:54:15.556Z,13.47
2017-07-15T01:55:15.534Z,13.47
2017-07-15T01:56:15.514Z,13.38
2017-07-15T01:57:15.488Z,13.38
2017-07-15T01:58:15.466Z,13.37
2017-07-15T01:59:15.442Z,13.33
2017-07-15T02:00:15.559Z,13.35
2017-07-15T02:01:15.394Z,13.33
2017-07-15T02:02:14.761Z,13.41
2017-07-15T02:03:15.349Z,13.3
2017-07-15T02:04:15.319Z,13.31
2017-07-15T02:05:14.690Z,13.27
2017-07-15T02:06:15.282Z,13.31
2017-07-15T02:07:15.252Z,13.33
2017-07-15T02:08:14.619Z,13.3
2017-07-15T02:09:15.221Z,13.28
2017-07-15T02:10:14.876Z,13.25
2017-07-15T02:11:15.453Z,13.31
2017-07-15T02:12:14.833Z,13.28
2017-07-15T02:13:14.806Z,13.25
2017-07-15T02:14:15.086Z,13.25
2017-07-15T02:15:15.065Z,13.2
2017-07-15T02:16:15.039Z,13.3
2017-07-15T02:17:15.015Z,13.3
2017-07-15T02:18:14.994Z,13.31
2017-07-15T02:19:14.969Z,13.33
2017-07-15T02:20:14.947Z,13.3
2017-07-15T02:21:14.925Z,13.31
2017-07-15T02:22:14.594Z,13.28
2017-07-15T02:23:14.266Z,13.3
2017-07-15T02:24:14.243Z,13.33
2017-07-15T02:25:14.525Z,13.38
2017-07-15T02:26:14.805Z,13.41
2017-07-15T02:27:14.479Z,13.41
2017-07-15T02:28:14.773Z,13.41
2017-07-15T02:29:14.743Z,13.44
2017-07-15T02:30:14.712Z,13.41
2017-07-15T02:31:14.685Z,13.42
2017-07-15T02:32:14.358Z,13.41
2017-07-15T02:33:14.639Z,13.39
2017-07-15T02:34:14.616Z,13.47
2017-07-15T02:35:14.596Z,13.46
2017-07-15T02:36:14.569Z,13.42
2017-07-15T02:37:14.545Z,13.39
2017-07-15T02:38:14.523Z,13.37
2017-07-15T02:39:14.196Z,13.33
2017-07-15T02:40:14.179Z,13.46
2017-07-15T02:41:14.456Z,13.38
2017-07-15T02:42:14.126Z,13.46
2017-07-15T02:43:14.102Z,13.37
2017-07-15T02:44:14.385Z,13.39
2017-07-15T02:45:14.057Z,13.44
2017-07-15T02:46:14.344Z,13.37
2017-07-15T02:47:14.313Z,13.37
2017-07-15T02:48:13.983Z,13.47
2017-07-15T02:49:14.263Z,13.38
2017-07-15T02:50:13.634Z,13.46
2017-07-15T02:51:13.916Z,13.38
2017-07-15T02:52:14.200Z,13.47
2017-07-15T02:53:14.172Z,13.42
2017-07-15T02:54:14.153Z,13.47
2017-07-15T02:55:14.125Z,13.49
2017-07-15T02:56:14.101Z,13.47
2017-07-15T02:57:13.772Z,13.5
2017-07-15T02:58:13.447Z,13.52
2017-07-15T02:59:13.728Z,13.47
2017-07-15T03:00:13.704Z,13.52
2017-07-15T03:01:13.986Z,13.54
2017-07-15T03:02:13.656Z,13.54
2017-07-15T03:03:13.936Z,13.6
2017-07-15T03:04:13.612Z,13.65
2017-07-15T03:05:13.898Z,13.62
2017-07-15T03:06:13.875Z,13.68
2017-07-15T03:07:13.848Z,13.59
2017-07-15T03:08:13.212Z,13.59
2017-07-15T03:09:13.800Z,13.67
2017-07-15T03:10:13.777Z,13.57
2017-07-15T03:11:13.753Z,13.59
2017-07-15T03:12:13.430Z,13.63
2017-07-15T03:13:13.707Z,13.62
2017-07-15T03:14:13.135Z,13.67
2017-07-15T03:15:13.353Z,13.75
2017-07-15T03:16:13.027Z,13.68
2017-07-15T03:17:13.641Z,13.74
2017-07-15T03:18:13.588Z,13.72
2017-07-15T03:19:13.566Z,13.7
2017-07-15T03:20:13.549Z,13.68
2017-07-15T03:21:13.516Z,13.72
2017-07-15T03:22:12.886Z,13.75
2017-07-15T03:23:12.864Z,13.72
2017-07-15T03:24:13.142Z,13.72
2017-07-15T03:25:13.425Z,13.75
2017-07-15T03:26:13.404Z,13.75
2017-07-15T03:27:13.073Z,13.75
2017-07-15T03:28:13.353Z,13.72
2017-07-15T03:29:13.331Z,13.75
2017-07-15T03:30:12.699Z,13.74
2017-07-15T03:31:13.285Z,13.6
2017-07-15T03:32:12.958Z,13.71
2017-07-15T03:33:13.239Z,13.78
2017-07-15T03:34:12.912Z,13.78
2017-07-15T03:35:12.888Z,13.7
2017-07-15T03:36:13.213Z,13.72
2017-07-15T03:37:13.152Z,13.78
2017-07-15T03:38:12.821Z,13.77
2017-07-15T03:39:13.099Z,13.75
2017-07-15T03:40:13.077Z,13.78
2017-07-15T03:41:12.749Z,13.78
2017-07-15T03:42:12.726Z,13.79
2017-07-15T03:43:13.012Z,13.85
2017-07-15T03:44:12.982Z,13.86
2017-07-15T03:45:12.655Z,13.9
2017-07-15T03:46:12.329Z,13.89
2017-07-15T03:47:12.305Z,13.87
2017-07-15T03:48:12.283Z,13.92
2017-07-15T03:49:12.566Z,13.86
2017-07-15T03:50:12.849Z,13.9
2017-07-15T03:51:12.519Z,13.92
2017-07-15T03:52:12.496Z,13.93
2017-07-15T03:53:12.473Z,13.93
2017-07-15T03:54:12.449Z,13.9
2017-07-15T03:55:12.729Z,13.93
2017-07-15T03:56:12.708Z,13.93
2017-07-15T03:57:12.685Z,13.93
2017-07-15T03:58:12.667Z,13.92
2017-07-15T03:59:12.640Z,13.87
2017-07-15T04:00:12.615Z,13.87
2017-07-15T04:01:12.594Z,13.85
2017-07-15T04:02:12.574Z,13.89
2017-07-15T04:03:12.547Z,13.9
2017-07-15T04:04:12.523Z,13.9
2017-07-15T04:05:12.498Z,13.9
2017-07-15T04:06:12.480Z,13.93
2017-07-15T04:07:12.457Z,13.95
2017-07-15T04:08:12.431Z,13.9
2017-07-15T04:09:12.407Z,13.86
2017-07-15T04:10:12.384Z,13.9
2017-07-15T04:11:12.362Z,13.86
2017-07-15T04:12:12.339Z,13.95
2017-07-15T04:13:12.009Z,14
2017-07-15T04:14:12.292Z,14
2017-07-15T04:15:12.274Z,13.97
2017-07-15T04:16:12.247Z,13.93
2017-07-15T04:17:12.224Z,13.97
2017-07-15T04:18:11.899Z,13.97
2017-07-15T04:19:11.871Z,13.95
2017-07-15T04:20:12.161Z,13.97
2017-07-15T04:21:12.131Z,13.97
2017-07-15T04:22:11.500Z,13.95
2017-07-15T04:23:11.476Z,13.99
2017-07-15T04:24:11.756Z,13.95
2017-07-15T04:25:12.041Z,13.97
2017-07-15T04:26:12.015Z,13.95
2017-07-15T04:27:11.993Z,13.99
2017-07-15T04:28:11.668Z,14.03
2017-07-15T04:29:11.957Z,14.07
2017-07-15T04:30:11.622Z,14.03
2017-07-15T04:31:11.903Z,14.08
2017-07-15T04:32:11.582Z,13.99
2017-07-15T04:33:11.861Z,14.03
2017-07-15T04:34:11.530Z,14.04
2017-07-15T04:35:11.509Z,13.99
2017-07-15T04:36:11.179Z,13.95
2017-07-15T04:37:11.463Z,13.97
2017-07-15T04:38:11.438Z,14
2017-07-15T04:39:11.720Z,13.99
2017-07-15T04:40:11.395Z,14.05
2017-07-15T04:41:11.674Z,14.04
2017-07-15T04:42:11.655Z,14.05
2017-07-15T04:43:11.631Z,14.03
2017-07-15T04:44:11.606Z,14.05
2017-07-15T04:45:11.586Z,14.1
2017-07-15T04:46:11.574Z,14.08
2017-07-15T04:47:11.541Z,14
2017-07-15T04:48:11.212Z,14.08
2017-07-15T04:49:11.491Z,14.1
2017-07-15T04:50:11.469Z,14.04
2017-07-15T04:51:11.446Z,14.12
2017-07-15T04:52:11.118Z,14.15
2017-07-15T04:53:11.402Z,14.1
2017-07-15T04:54:11.080Z,14.08
2017-07-15T04:55:11.051Z,14.08
2017-07-15T04:56:11.028Z,14.15
2017-07-15T04:57:11.011Z,14.22
2017-07-15T04:58:11.295Z,14.17
2017-07-15T04:59:11.279Z,14.26
2017-07-15T05:00:11.251Z,14.18
2017-07-15T05:01:10.916Z,14.17
2017-07-15T05:02:11.204Z,14.32
2017-07-15T05:03:11.174Z,14.33
2017-07-15T05:04:10.851Z,14.35
2017-07-15T05:05:11.133Z,14.37
2017-07-15T05:06:11.111Z,14.35
2017-07-15T05:07:10.781Z,14.45
2017-07-15T05:08:11.065Z,14.5
2017-07-15T05:09:10.433Z,14.48
2017-07-15T05:10:10.714Z,14.5
2017-07-15T05:11:10.740Z,14.5
2017-07-15T05:12:10.676Z,14.43
2017-07-15T05:13:10.670Z,14.47
2017-07-15T05:14:10.629Z,14.47
2017-07-15T05:15:10.607Z,14.5
2017-07-15T05:16:10.280Z,14.48
2017-07-15T05:17:10.872Z,14.5
2017-07-15T05:18:10.867Z,14.45
2017-07-15T05:19:10.521Z,14.43
2017-07-15T05:20:10.806Z,14.45
2017-07-15T05:21:10.788Z,14.45
2017-07-15T05:22:10.452Z,14.51
2017-07-15T05:23:10.430Z,14.5
2017-07-15T05:24:10.105Z,14.54
2017-07-15T05:25:10.387Z,14.51
2017-07-15T05:26:10.670Z,14.48
2017-07-15T05:27:10.649Z,14.53
2017-07-15T05:28:10.632Z,14.6
2017-07-15T05:29:10.301Z,14.59
2017-07-15T05:30:10.582Z,14.65
2017-07-15T05:31:10.562Z,14.65
2017-07-15T05:32:10.236Z,14.69
2017-07-15T05:33:10.221Z,14.78
2017-07-15T05:34:10.501Z,14.79
2017-07-15T05:35:10.481Z,14.85
2017-07-15T05:36:10.455Z,14.66
2017-07-15T05:37:10.434Z,14.7
2017-07-15T05:38:10.107Z,14.73
2017-07-15T05:39:10.392Z,14.69
2017-07-15T05:40:10.377Z,14.7
2017-07-15T05:41:10.044Z,14.7
2017-07-15T05:42:10.022Z,14.77
2017-07-15T05:43:10.305Z,14.73
2017-07-15T05:44:10.291Z,14.69
2017-07-15T05:45:10.266Z,14.66
2017-07-15T05:46:09.633Z,14.7
2017-07-15T05:47:10.227Z,14.77
2017-07-15T05:48:09.896Z,14.78
2017-07-15T05:49:10.181Z,14.72
2017-07-15T05:50:10.158Z,14.77
2017-07-15T05:51:09.844Z,14.81
2017-07-15T05:52:10.117Z,14.7
2017-07-15T05:53:10.103Z,14.68
2017-07-15T05:54:09.771Z,14.69
2017-07-15T05:55:10.054Z,14.7
2017-07-15T05:56:10.031Z,14.77
2017-07-15T05:57:10.009Z,14.82
2017-07-15T05:58:09.998Z,14.84
2017-07-15T05:59:09.970Z,14.85
2017-07-15T06:00:09.336Z,14.84
2017-07-15T06:01:09.316Z,14.82
2017-07-15T06:02:09.905Z,14.89
2017-07-15T06:03:09.888Z,14.81
2017-07-15T06:04:09.865Z,14.84
2017-07-15T06:05:09.840Z,14.88
2017-07-15T06:06:09.514Z,14.88
2017-07-15T06:07:09.189Z,14.82
2017-07-15T06:08:09.780Z,14.91
2017-07-15T06:09:09.754Z,14.85
2017-07-15T06:10:09.481Z,14.92
2017-07-15T06:11:09.714Z,15.07
2017-07-15T06:12:09.692Z,15.06
2017-07-15T06:13:09.673Z,15.06
2017-07-15T06:14:09.347Z,15.18
2017-07-15T06:15:09.637Z,15.17
2017-07-15T06:16:09.607Z,15.17
2017-07-15T06:17:09.594Z,15.17
2017-07-15T06:18:09.264Z,15.25
2017-07-15T06:19:09.548Z,15.27
2017-07-15T06:20:09.531Z,15.39
2017-07-15T06:21:09.204Z,15.36
2017-07-15T06:22:08.878Z,15.43
2017-07-15T06:23:09.466Z,15.44
2017-07-15T06:24:09.444Z,15.42
2017-07-15T06:25:09.427Z,15.44
2017-07-15T06:26:09.104Z,15.59
2017-07-15T06:27:09.386Z,15.62
2017-07-15T06:28:09.068Z,15.49
2017-07-15T06:29:09.397Z,15.47
2017-07-15T06:30:09.329Z,15.49
2017-07-15T06:31:09.307Z,15.43
2017-07-15T06:32:09.290Z,15.43
2017-07-15T06:33:09.268Z,15.39
2017-07-15T06:34:08.943Z,15.44
2017-07-15T06:35:09.245Z,15.44
2017-07-15T06:36:09.210Z,15.42
2017-07-15T06:37:09.227Z,15.44
2017-07-15T06:38:09.168Z,15.49
2017-07-15T06:39:09.151Z,15.54
2017-07-15T06:40:09.132Z,15.4
2017-07-15T06:41:09.116Z,15.44
2017-07-15T06:42:09.091Z,15.39
2017-07-15T06:43:09.071Z,15.47
2017-07-15T06:44:08.746Z,15.42
2017-07-15T06:45:08.725Z,15.44
2017-07-15T06:46:09.008Z,15.47
2017-07-15T06:47:08.992Z,15.61
2017-07-15T06:48:08.663Z,15.57
2017-07-15T06:49:08.953Z,15.65
2017-07-15T06:50:08.937Z,15.65
2017-07-15T06:51:08.907Z,15.64
2017-07-15T06:52:08.597Z,15.67
2017-07-15T06:53:08.871Z,15.7
2017-07-15T06:54:08.542Z,15.65
2017-07-15T06:55:08.827Z,15.77
2017-07-15T06:56:08.807Z,15.76
2017-07-15T06:57:08.483Z,15.77
2017-07-15T06:58:08.465Z,15.82
2017-07-15T06:59:08.750Z,15.77
2017-07-15T07:00:08.728Z,15.86
2017-07-15T07:01:08.404Z,15.91
2017-07-15T07:02:08.691Z,15.86
2017-07-15T07:03:08.366Z,16
2017-07-15T07:04:08.344Z,15.98
2017-07-15T07:05:08.326Z,15.98
2017-07-15T07:06:08.609Z,15.98
2017-07-15T07:07:08.591Z,16.08
2017-07-15T07:08:08.269Z,16.09
2017-07-15T07:09:07.949Z,16.05
2017-07-15T07:10:07.926Z,16.08
2017-07-15T07:11:08.518Z,16.09
2017-07-15T07:12:08.835Z,16.05
2017-07-15T07:13:08.473Z,16.26
2017-07-15T07:14:08.650Z,16.36
2017-07-15T07:15:07.827Z,16.28
2017-07-15T07:16:08.417Z,16.31
2017-07-15T07:17:08.095Z,16.36
2017-07-15T07:18:08.086Z,16.38
2017-07-15T07:19:08.057Z,16.36
2017-07-15T07:20:07.735Z,16.28
2017-07-15T07:21:07.715Z,16.31
2017-07-15T07:22:08.001Z,16.38
2017-07-15T07:23:07.979Z,16.38
2017-07-15T07:24:07.960Z,16.35
2017-07-15T07:25:07.943Z,16.35
2017-07-15T07:26:07.924Z,16.43
2017-07-15T07:27:08.210Z,16.5
2017-07-15T07:28:07.583Z,16.58
2017-07-15T07:29:08.171Z,16.58
2017-07-15T07:30:07.849Z,16.64
2017-07-15T07:31:08.250Z,16.72
2017-07-15T07:32:07.814Z,16.79
2017-07-15T07:33:07.795Z,16.75
2017-07-15T07:34:07.776Z,16.89
2017-07-15T07:35:08.063Z,16.86
2017-07-15T07:36:07.436Z,16.93
2017-07-15T07:37:07.722Z,16.89
2017-07-15T07:38:07.713Z,16.87
2017-07-15T07:39:07.382Z,16.86
2017-07-15T07:40:07.970Z,17.02
2017-07-15T07:41:07.957Z,16.91
2017-07-15T07:42:07.635Z,16.97
2017-07-15T07:43:07.920Z,16.99
2017-07-15T07:44:07.901Z,17.02
2017-07-15T07:45:07.592Z,17.06
2017-07-15T07:46:07.866Z,17.04
2017-07-15T07:47:07.239Z,17.06
2017-07-15T07:48:07.831Z,17.08
2017-07-15T07:49:07.509Z,17.02
2017-07-15T07:50:07.795Z,17.08
2017-07-15T07:51:07.477Z,17.05
2017-07-15T07:52:07.767Z,17.06
2017-07-15T07:53:07.745Z,17.06
2017-07-15T07:54:07.420Z,17.22
2017-07-15T07:55:07.747Z,17.2
2017-07-15T07:56:07.384Z,17.26
2017-07-15T07:57:07.751Z,17.36
2017-07-15T07:58:07.351Z,17.36
2017-07-15T07:59:07.331Z,17.46
2017-07-15T08:00:07.621Z,17.48
2017-07-15T08:01:07.297Z,17.6
2017-07-15T08:02:07.614Z,17.59
2017-07-15T08:03:07.568Z,17.6
2017-07-15T08:04:07.555Z,17.7
2017-07-15T08:05:07.534Z,17.7
2017-07-15T08:06:07.217Z,17.67
2017-07-15T08:07:07.501Z,17.63
2017-07-15T08:08:07.485Z,17.7
2017-07-15T08:09:07.469Z,17.71
2017-07-15T08:10:07.455Z,17.76
2017-07-15T08:11:07.433Z,17.87
2017-07-15T08:12:07.423Z,17.97
2017-07-15T08:13:07.455Z,17.92
2017-07-15T08:14:07.082Z,18.04
2017-07-15T08:15:07.069Z,17.95
2017-07-15T08:16:07.051Z,18.07
2017-07-15T08:17:07.338Z,18.1
2017-07-15T08:18:07.020Z,18.23
2017-07-15T08:19:07.002Z,18.19
2017-07-15T08:20:06.986Z,18.2
2017-07-15T08:21:07.336Z,18.33
2017-07-15T08:22:07.263Z,18.41
2017-07-15T08:23:06.946Z,18.53
2017-07-15T08:24:07.227Z,18.58
2017-07-15T08:25:06.909Z,18.52
2017-07-15T08:26:07.200Z,18.53
2017-07-15T08:27:07.184Z,18.41
2017-07-15T08:28:07.168Z,18.44
2017-07-15T08:29:06.544Z,18.55
2017-07-15T08:30:06.531Z,18.6
2017-07-15T08:31:06.815Z,18.62
2017-07-15T08:32:06.498Z,18.78
2017-07-15T08:33:07.092Z,18.83
2017-07-15T08:34:07.080Z,18.74
2017-07-15T08:35:07.314Z,18.75
2017-07-15T08:36:07.047Z,18.8
2017-07-15T08:37:07.033Z,18.77
2017-07-15T08:38:07.016Z,18.71
2017-07-15T08:39:07.001Z,18.75
2017-07-15T08:40:06.995Z,18.6
2017-07-15T08:41:06.668Z,18.66
2017-07-15T08:42:06.652Z,18.68
2017-07-15T08:43:06.951Z,18.62
2017-07-15T08:44:06.928Z,18.53
2017-07-15T08:45:06.607Z,18.37
2017-07-15T08:46:06.895Z,18.2
2017-07-15T08:47:06.271Z,18.08
2017-07-15T08:48:06.255Z,17.98
2017-07-15T08:49:06.546Z,17.89
2017-07-15T08:50:06.527Z,17.9
2017-07-15T08:51:06.821Z,17.78
2017-07-15T08:52:06.800Z,17.82
2017-07-15T08:53:06.483Z,17.78
2017-07-15T08:54:06.460Z,17.85
2017-07-15T08:55:06.751Z,17.87
2017-07-15T08:56:06.124Z,17.95
2017-07-15T08:57:06.414Z,17.98
2017-07-15T08:58:06.699Z,17.98
2017-07-15T08:59:06.650Z,17.94
2017-07-15T09:00:06.667Z,18.1
2017-07-15T09:01:06.344Z,18.08
2017-07-15T09:02:06.329Z,17.97
2017-07-15T09:03:06.136Z,17.87
2017-07-15T09:04:06.600Z,17.82
2017-07-15T09:05:06.586Z,17.89
2017-07-15T09:06:06.262Z,17.89
2017-07-15T09:07:06.244Z,17.89
2017-07-15T09:08:06.279Z,17.92
2017-07-15T09:09:06.518Z,17.9
2017-07-15T09:10:06.198Z,17.9
2017-07-15T09:11:06.181Z,17.79
2017-07-15T09:12:05.857Z,17.92
2017-07-15T09:13:06.144Z,17.86
2017-07-15T09:14:07.414Z,17.87
2017-07-15T09:15:05.807Z,17.8
2017-07-15T09:16:06.092Z,17.78
2017-07-15T09:17:06.380Z,17.76
2017-07-15T09:18:06.363Z,17.79
2017-07-15T09:19:06.354Z,17.72
2017-07-15T09:20:06.332Z,17.71
2017-07-15T09:21:05.705Z,17.64
2017-07-15T09:22:06.294Z,17.67
2017-07-15T09:23:06.279Z,17.65
2017-07-15T09:24:06.260Z,17.57
2017-07-15T09:25:05.939Z,17.59
2017-07-15T09:26:05.617Z,17.6
2017-07-15T09:27:06.209Z,17.71
2017-07-15T09:28:06.190Z,17.76
2017-07-15T09:29:06.171Z,17.89
2017-07-15T09:30:05.850Z,17.97
2017-07-15T09:31:06.143Z,18.19
2017-07-15T09:32:06.121Z,18.62
2017-07-15T09:33:05.925Z,19.09
2017-07-15T09:34:05.479Z,19.31
2017-07-15T09:35:06.923Z,19.41
2017-07-15T09:36:05.760Z,19.39
2017-07-15T09:37:06.077Z,19.34
2017-07-15T09:38:05.723Z,19.21
2017-07-15T09:39:06.011Z,18.98
2017-07-15T09:40:05.692Z,18.84
2017-07-15T09:41:05.675Z,18.73
2017-07-15T09:42:05.355Z,18.62
2017-07-15T09:43:05.948Z,18.58
2017-07-15T09:44:05.628Z,18.56
2017-07-15T09:45:05.613Z,18.55
2017-07-15T09:46:05.597Z,18.52
2017-07-15T09:47:05.278Z,18.37
2017-07-15T09:48:05.867Z,18.4
2017-07-15T09:49:05.548Z,18.35
2017-07-15T09:50:05.538Z,18.45
2017-07-15T09:51:05.518Z,18.84
2017-07-15T09:52:05.197Z,19.47
2017-07-15T09:53:05.610Z,20.16
2017-07-15T09:54:05.473Z,20.82
2017-07-15T09:55:05.459Z,21.58
2017-07-15T09:56:05.440Z,22.2
2017-07-15T09:57:05.428Z,22.85
2017-07-15T09:58:05.417Z,23.34
2017-07-15T09:59:05.707Z,23.69
2017-07-15T10:00:05.391Z,24.01
2017-07-15T10:01:05.380Z,24.36
2017-07-15T10:02:05.373Z,24.55
2017-07-15T10:03:05.662Z,24.85
2017-07-15T10:04:05.044Z,25.03
2017-07-15T10:05:06.006Z,25.4
2017-07-15T10:06:05.362Z,25.55
2017-07-15T10:07:05.321Z,25.35
2017-07-15T10:08:05.312Z,24.92
2017-07-15T10:09:05.304Z,24.33
2017-07-15T10:10:05.375Z,23.98
2017-07-15T10:11:05.594Z,23.55
2017-07-15T10:12:05.279Z,22.9
2017-07-15T10:13:05.271Z,22.47
2017-07-15T10:14:04.957Z,22.15
2017-07-15T10:15:05.250Z,21.79
2017-07-15T10:16:05.268Z,21.58
2017-07-15T10:17:05.229Z,21.4
2017-07-15T10:18:05.269Z,21.36
2017-07-15T10:19:05.511Z,21.67
2017-07-15T10:20:06.112Z,21.75
2017-07-15T10:21:05.182Z,21.52
2017-07-15T10:22:05.175Z,21.39
2017-07-15T10:23:05.163Z,21.21
2017-07-15T10:24:05.484Z,20.88
2017-07-15T10:25:05.171Z,21.07
2017-07-15T10:26:05.431Z,21.73
2017-07-15T10:27:05.419Z,21.88
2017-07-15T10:28:04.799Z,21.96
2017-07-15T10:29:05.092Z,22
2017-07-15T10:30:04.774Z,22.47
2017-07-15T10:31:05.379Z,22.7
2017-07-15T10:32:05.054Z,22.88
2017-07-15T10:33:05.044Z,23.05
2017-07-15T10:34:05.338Z,23.15
2017-07-15T10:35:05.024Z,23.2
2017-07-15T10:36:05.315Z,22.81
2017-07-15T10:37:05.308Z,22.51
2017-07-15T10:38:05.293Z,22.14
2017-07-15T10:39:04.976Z,21.76
2017-07-15T10:40:04.966Z,21.5
2017-07-15T10:41:04.649Z,21.24
2017-07-15T10:42:04.941Z,21
2017-07-15T10:43:05.231Z,20.77
2017-07-15T10:44:04.915Z,20.59
2017-07-15T10:45:05.211Z,20.39
2017-07-15T10:46:04.586Z,20.29
2017-07-15T10:47:04.572Z,20.04
2017-07-15T10:48:04.861Z,19.84
2017-07-15T10:49:05.154Z,19.66
2017-07-15T10:50:05.138Z,19.47
2017-07-15T10:51:05.119Z,19.51
2017-07-15T10:52:04.995Z,19.29
2017-07-15T10:53:04.786Z,19.22
2017-07-15T10:54:04.772Z,19.14
2017-07-15T10:55:04.815Z,19.14
2017-07-15T10:56:04.764Z,18.99
2017-07-15T10:57:04.421Z,19
2017-07-15T10:58:05.009Z,19.04
2017-07-15T10:59:04.692Z,19.07
2017-07-15T11:00:04.675Z,19.18
2017-07-15T11:01:04.959Z,19.21
2017-07-15T11:02:04.945Z,19.3
2017-07-15T11:03:04.373Z,19.26
2017-07-15T11:04:04.610Z,19.47
2017-07-15T11:05:04.289Z,19.34
2017-07-15T11:06:04.576Z,19.45
2017-07-15T11:07:04.258Z,19.49
2017-07-15T11:08:04.795Z,19.69
2017-07-15T11:09:04.528Z,19.91
2017-07-15T11:10:04.209Z,19.94
2017-07-15T11:11:04.193Z,20.18
2017-07-15T11:12:04.569Z,20.31
2017-07-15T11:13:04.314Z,20.4
2017-07-15T11:14:04.148Z,20.47
2017-07-15T11:15:04.133Z,20.5
2017-07-15T11:16:04.420Z,20.44
2017-07-15T11:17:04.713Z,20.43
2017-07-15T11:18:04.392Z,20.4
2017-07-15T11:19:04.684Z,20.4
2017-07-15T11:20:04.362Z,20.4
2017-07-15T11:21:04.653Z,20.18
2017-07-15T11:22:04.029Z,20.18
2017-07-15T11:23:04.013Z,20.22
2017-07-15T11:24:04.605Z,20.21
2017-07-15T11:25:04.293Z,20.06
2017-07-15T11:26:04.577Z,20.06
2017-07-15T11:27:04.561Z,19.91
2017-07-15T11:28:04.547Z,19.95
2017-07-15T11:29:03.923Z,19.92
2017-07-15T11:30:04.518Z,19.82
2017-07-15T11:31:04.198Z,19.71
2017-07-15T11:32:04.487Z,19.7
2017-07-15T11:33:04.477Z,19.66
2017-07-15T11:34:03.848Z,19.62
2017-07-15T11:35:04.136Z,19.7
2017-07-15T11:36:04.431Z,19.73
2017-07-15T11:37:04.107Z,19.71
2017-07-15T11:38:04.392Z,19.71
2017-07-15T11:39:04.383Z,19.85
2017-07-15T11:40:04.362Z,19.95
2017-07-15T11:41:03.738Z,20.03
2017-07-15T11:42:04.341Z,20.14
2017-07-15T11:43:04.319Z,20.28
2017-07-15T11:44:04.300Z,20.36
2017-07-15T11:45:03.677Z,20.51
2017-07-15T11:46:03.969Z,20.52
2017-07-15T11:47:03.952Z,20.55
2017-07-15T11:48:03.935Z,20.65
2017-07-15T11:49:03.618Z,20.69
2017-07-15T11:50:03.911Z,20.69
2017-07-15T11:51:03.892Z,20.74
2017-07-15T11:52:04.186Z,20.87
2017-07-15T11:53:03.865Z,20.87
2017-07-15T11:54:03.852Z,20.95
2017-07-15T11:55:03.847Z,21.02
2017-07-15T11:56:04.137Z,21.55
2017-07-15T11:57:04.115Z,22.15
2017-07-15T11:58:04.119Z,22.83
2017-07-15T11:59:03.782Z,23.44
2017-07-15T12:00:03.772Z,23.93
2017-07-15T12:01:04.061Z,24.35
2017-07-15T12:02:04.051Z,24.81
2017-07-15T12:03:03.734Z,25.26
2017-07-15T12:04:03.722Z,25.68
2017-07-15T12:05:03.713Z,25.99
2017-07-15T12:06:04.010Z,26.19
2017-07-15T12:07:04.001Z,26.44
2017-07-15T12:08:03.688Z,26.63
2017-07-15T12:09:03.984Z,26.52
2017-07-15T12:10:03.991Z,26.66
2017-07-15T12:11:03.663Z,26.53
2017-07-15T12:12:03.977Z,26.29
2017-07-15T12:13:03.652Z,25.99
2017-07-15T12:14:03.947Z,25.83
2017-07-15T12:15:03.939Z,25.65
2017-07-15T12:16:03.936Z,25.21
2017-07-15T12:17:03.625Z,24.74
2017-07-15T12:18:03.312Z,24.53
2017-07-15T12:19:03.613Z,24.73
2017-07-15T12:20:03.905Z,24.96
2017-07-15T12:21:03.623Z,25.07
2017-07-15T12:22:03.889Z,25.17
2017-07-15T12:23:03.579Z,25.29
2017-07-15T12:24:03.572Z,25.48
2017-07-15T12:25:03.566Z,25.78
2017-07-15T12:26:03.561Z,25.69
2017-07-15T12:27:03.855Z,25.9
2017-07-15T12:28:03.561Z,25.95
2017-07-15T12:29:03.842Z,26.19
2017-07-15T12:30:03.230Z,26.56
2017-07-15T12:31:03.836Z,26.9
2017-07-15T12:32:03.526Z,27.14
2017-07-15T12:33:03.826Z,27.33
2017-07-15T12:34:03.814Z,27.27
2017-07-15T12:35:03.509Z,27.17
2017-07-15T12:36:03.808Z,26.9
2017-07-15T12:37:03.497Z,26.63
2017-07-15T12:38:03.801Z,26.45
2017-07-15T12:39:03.491Z,26.31
2017-07-15T12:40:03.180Z,26.4
2017-07-15T12:41:03.176Z,26.36
2017-07-15T12:42:03.171Z,26.25
2017-07-15T12:43:03.774Z,26.45
2017-07-15T12:44:03.770Z,26.34
2017-07-15T12:45:03.462Z,26.02
2017-07-15T12:46:03.763Z,25.7
2017-07-15T12:47:03.758Z,25.36
2017-07-15T12:48:03.752Z,25.1
2017-07-15T12:49:03.744Z,24.81
2017-07-15T12:50:03.742Z,24.5
2017-07-15T12:51:03.429Z,24.32
2017-07-15T12:52:03.726Z,23.98
2017-07-15T12:53:03.112Z,23.77
2017-07-15T12:54:03.102Z,23.74
2017-07-15T12:55:03.707Z,23.61
2017-07-15T12:56:03.395Z,23.81
2017-07-15T12:57:03.722Z,24.05